• Join FlightAware (Why Join?)
  • Login
  • US Flag 
04:06AM EDT


 

Airport Tracker/Info


-or-


 

Live Flight TrackerFlight Track Log ✈ SKW2980 ✈ 07-May-2013 ✈ KPHX - KNYL

Flight Track Log - Related Links

Times and Time Zones

All times are in EDT time to prevent confusion due to time zone crossing. See the SKW2980 flight status page for this flight to view local times or setup timezone preferences in your user account.

Time Position Orientation Groundspeed Altitude Reporting Facility
EDT Latitude Longitude Course Direction KTS MPH feet Rate Location/Type
12:59AM 33.4333 -112.0333 239° Southwest 150 173 2,300  Level Phoenix TRACON
01:00AM 33.4167 -112.0667 239° Southwest 190 219 3,200 2,100 Climbing Phoenix TRACON
01:01AM 33.3833 -112.1500 244° Southwest 247 284 5,900 2,880 Climbing Phoenix TRACON
01:02AM 33.3275 -112.2072 221° Southwest 251 289 9,300 2,640 Climbing Albuquerque Center
01:03AM 33.2758 -112.2714 226° Southwest 262 302 11,600 2,520 Climbing Albuquerque Center
01:04AM 33.2214 -112.3394 226° Southwest 277 319 14,500 2,160 Climbing Albuquerque Center
01:05AM 33.1647 -112.4100 226° Southwest 289 333 16,000 720 Climbing Albuquerque Center
01:06AM 33.0933 -112.5014 227° Southwest 351 404 16,000  Level Albuquerque Center
01:07AM 33.0206 -112.5919 226° Southwest 375 432 16,000  Level Albuquerque Center
01:08AM 32.9511 -112.6842 228° Southwest 375 432 16,000  Level Albuquerque Center
01:09AM 32.9383 -112.8000 263° West 356 410 16,000  Level Albuquerque Center
01:10AM 32.9236 -112.9147 261° West 354 407 16,000  Level Albuquerque Center
01:11AM 32.9081 -113.0328 261° West 360 414 16,000  Level Albuquerque Center
01:12AM 32.8917 -113.1531 261° West 367 422 16,000  Level Albuquerque Center
01:13AM 32.8744 -113.2761 261° West 374 430 16,000  Level Albuquerque Center
01:14AM 32.8569 -113.3978 260° West 376 433 16,000 -60 Level Albuquerque Center
01:15AM 32.8406 -113.5203 261° West 377 434 15,900 -60 Descending Albuquerque Center
01:16AM 32.8233 -113.6428 261° West 378 435 15,900 -180 Level Albuquerque Center
01:17AM 32.8064 -113.7631 261° West 374 430 15,600 -1,380 Descending Albuquerque Center
01:18AM 32.7856 -113.9022 260° West 363 418 13,200 -2,160 Descending Albuquerque Center
01:19AM 32.7753 -114.0139 264° West 347 399 11,300 -1,740 Descending Albuquerque Center
01:20AM 32.7644 -114.1075 262° West 300 345 9,800 -1,500 Descending Albuquerque Center
01:21AM 32.7572 -114.1328 251° West 283 326 9,300 -1,800 Descending Los Angeles Center
01:22AM 32.7342 -114.2175 252° West 270 311 7,300 -1,740 Descending Los Angeles Center
01:23AM 32.7175 -114.2839 253° West 267 307 5,900 -1,980 Descending Los Angeles Center
01:24AM 32.6953 -114.3769 254° West 250 288 3,300 -1,920 Descending Los Angeles Center
01:25AM 32.6744 -114.4514 252° West 241 277 2,000 -960 Descending Los Angeles Center
01:26AM 32.6603 -114.5083 254° West 203 234 1,400 -720 Descending Los Angeles Center
01:27AM 32.6633 -114.5633 274° West 163 188 600 -840 Descending Los Angeles Center